Time;durP1;ratioP1;P1;durP2;ratioP2;P2;SDS_P1;SDS_P2;PMS_P1;PMS_P2;Temp;Humidity;BMP_temperature;BMP_pressure;BME280_temperature;BME280_humidity;BME280_pressure;Samples;Min_cycle;Max_cycle;Signal;HPM_P1;HPM_P2
2023/03/09 00:01:50;;;;;;;4.03;2.87;;;;;;;;;;5072031;28;20468;-80
2023/03/09 00:04:16;;;;;;;3.70;2.60;;;;;;;;;;5072291;28;20546;-79
2023/03/09 00:06:43;;;;;;;2.80;1.73;;;;;;;;;;5072342;28;20521;-81
2023/03/09 00:09:09;;;;;;;5.73;2.90;;;;;;;;;;5072268;28;20415;-80
2023/03/09 00:11:35;;;;;;;3.63;2.37;;;;;;;;;;5072575;28;20510;-80
2023/03/09 00:14:01;;;;;;;6.83;2.50;;;;;;;;;;5072231;28;20993;-80
2023/03/09 00:16:27;;;;;;;3.13;2.13;;;;;;;;;;5071941;28;20407;-81
2023/03/09 00:18:56;;;;;;;5.77;2.47;;;;;;;;;;5076038;28;20531;-81
2023/03/09 00:21:34;;;;;;;2.77;1.77;;;;;;;;;;5076390;28;20500;-79
2023/03/09 00:24:04;;;;;;;4.07;2.80;;;;;;;;;;5076402;28;20481;-81
2023/03/09 00:26:30;;;;;;;3.97;2.53;;;;;;;;;;5076308;28;20426;-81
2023/03/09 00:28:56;;;;;;;4.73;3.10;;;;;;;;;;5076205;28;20879;-81
2023/03/09 00:31:22;;;;;;;5.80;2.87;;;;;;;;;;5075892;28;20452;-80
2023/03/09 00:33:48;;;;;;;4.67;2.47;;;;;;;;;;5076057;28;20436;-82
2023/03/09 00:36:15;;;;;;;3.53;2.60;;;;;;;;;;5076510;28;20413;-81
2023/03/09 00:38:41;;;;;;;5.37;2.80;;;;;;;;;;5076324;28;20817;-82
2023/03/09 00:41:07;;;;;;;6.40;2.77;;;;;;;;;;5076459;28;20492;-84
2023/03/09 00:43:33;;;;;;;3.63;2.60;;;;;;;;;;5022549;28;20528;-84
2023/03/09 00:45:59;;;;;;;2.50;2.00;;;;;;;;;;5056191;28;20413;-83
2023/03/09 00:48:25;;;;;;;4.47;3.23;;;;;;;;;;5056490;28;20412;-84
2023/03/09 00:50:51;;;;;;;6.93;2.90;;;;;;;;;;5056253;28;20411;-82
2023/03/09 00:53:17;;;;;;;2.70;2.50;;;;;;;;;;5056354;28;20414;-82
2023/03/09 00:55:43;;;;;;;4.20;2.17;;;;;;;;;;5056208;28;20419;-85
2023/03/09 00:58:09;;;;;;;4.00;2.13;;;;;;;;;;5056103;28;20554;-82
2023/03/09 01:00:35;;;;;;;3.33;2.20;;;;;;;;;;5055834;28;20974;-82
2023/03/09 01:03:01;;;;;;;3.93;2.13;;;;;;;;;;5056117;28;20505;-81
2023/03/09 01:05:27;;;;;;;5.43;3.00;;;;;;;;;;5054684;28;20490;-81
2023/03/09 01:07:53;;;;;;;2.40;2.10;;;;;;;;;;5056064;28;20421;-81
2023/03/09 01:10:19;;;;;;;3.13;2.60;;;;;;;;;;5055988;28;20437;-81
2023/03/09 01:12:45;;;;;;;3.23;2.17;;;;;;;;;;5054775;28;20422;-82
2023/03/09 01:15:12;;;;;;;4.07;2.60;;;;;;;;;;5073478;28;20514;-81
2023/03/09 01:17:38;;;;;;;3.70;2.80;;;;;;;;;;5075895;28;20788;-83
2023/03/09 01:20:04;;;;;;;3.30;2.70;;;;;;;;;;5075867;28;20484;-82
2023/03/09 01:22:30;;;;;;;3.77;2.17;;;;;;;;;;5075803;28;20399;-82
2023/03/09 01:24:56;;;;;;;5.00;2.53;;;;;;;;;;5075651;28;20426;-82
2023/03/09 01:27:22;;;;;;;4.40;2.43;;;;;;;;;;5075757;28;20406;-82
2023/03/09 01:29:48;;;;;;;2.20;1.70;;;;;;;;;;5075292;28;20425;-82
2023/03/09 01:32:14;;;;;;;5.90;2.90;;;;;;;;;;5075631;28;20508;-83
2023/03/09 01:34:40;;;;;;;3.10;1.90;;;;;;;;;;5075597;28;20416;-81
2023/03/09 01:37:06;;;;;;;4.07;2.93;;;;;;;;;;5074293;28;20508;-81
2023/03/09 01:39:32;;;;;;;2.30;1.57;;;;;;;;;;5075473;28;20828;-82
2023/03/09 01:41:58;;;;;;;2.67;2.43;;;;;;;;;;5075487;28;20403;-82
2023/03/09 01:44:24;;;;;;;5.53;3.23;;;;;;;;;;5074175;28;20449;-84
2023/03/09 01:46:53;;;;;;;2.70;2.27;;;;;;;;;;5075020;28;20457;-82
2023/03/09 01:49:38;;;;;;;3.93;2.90;;;;;;;;;;5074131;28;20923;-82
2023/03/09 01:52:07;;;;;;;4.40;3.00;;;;;;;;;;5075262;28;20496;-81
2023/03/09 01:54:40;;;;;;;4.80;1.97;;;;;;;;;;5073965;28;20416;-82
2023/03/09 01:57:16;;;;;;;3.20;2.63;;;;;;;;;;5075079;28;20503;-82
2023/03/09 01:59:43;;;;;;;2.67;2.20;;;;;;;;;;5074826;28;20425;-82
2023/03/09 02:02:10;;;;;;;2.97;1.90;;;;;;;;;;5050600;28;20435;-81
2023/03/09 02:04:42;;;;;;;7.50;3.17;;;;;;;;;;5038450;28;20458;-82
2023/03/09 02:07:09;;;;;;;3.30;2.30;;;;;;;;;;5055042;28;20413;-82
2023/03/09 02:09:35;;;;;;;8.20;3.43;;;;;;;;;;5055001;28;20554;-82
2023/03/09 02:12:01;;;;;;;6.50;2.20;;;;;;;;;;5055124;28;20401;-83
2023/03/09 02:14:28;;;;;;;2.93;2.27;;;;;;;;;;5054942;28;20413;-82
2023/03/09 02:16:54;;;;;;;4.30;2.47;;;;;;;;;;5054802;28;20879;-82
2023/03/09 02:19:27;;;;;;;3.47;3.17;;;;;;;;;;5053445;28;20497;-82
2023/03/09 02:21:54;;;;;;;4.60;2.63;;;;;;;;;;5054748;28;20470;-82
2023/03/09 02:24:26;;;;;;;2.60;2.40;;;;;;;;;;5054734;28;20509;-82
2023/03/09 02:26:54;;;;;;;5.17;2.80;;;;;;;;;;5054656;28;20404;-82
2023/03/09 02:29:21;;;;;;;3.30;2.73;;;;;;;;;;5054591;28;20911;-83
2023/03/09 02:31:47;;;;;;;4.17;1.97;;;;;;;;;;5052905;28;20417;-82
2023/03/09 02:34:13;;;;;;;5.50;3.00;;;;;;;;;;5054421;28;20524;-82
2023/03/09 02:36:39;;;;;;;3.40;2.50;;;;;;;;;;5054496;28;20767;-83
2023/03/09 02:39:10;;;;;;;3.40;2.17;;;;;;;;;;5054345;28;20828;-81
2023/03/09 02:41:36;;;;;;;4.17;1.90;;;;;;;;;;5053734;28;20949;-82
2023/03/09 02:44:02;;;;;;;4.00;2.00;;;;;;;;;;5054284;28;20412;-83
2023/03/09 02:46:28;;;;;;;3.53;2.50;;;;;;;;;;5052652;28;20429;-83
2023/03/09 02:48:54;;;;;;;5.77;3.57;;;;;;;;;;5054269;28;20424;-83
2023/03/09 02:51:20;;;;;;;3.50;2.70;;;;;;;;;;5054180;28;20419;-82
2023/03/09 02:53:46;;;;;;;2.73;2.50;;;;;;;;;;5054047;28;20412;-81
2023/03/09 02:56:12;;;;;;;5.03;2.63;;;;;;;;;;5054370;28;20477;-83
2023/03/09 02:58:38;;;;;;;3.57;2.50;;;;;;;;;;5052591;28;20842;-82
2023/03/09 03:01:04;;;;;;;5.73;2.87;;;;;;;;;;5052286;28;20455;-82
2023/03/09 03:03:30;;;;;;;5.63;2.20;;;;;;;;;;5052393;28;20528;-83
2023/03/09 03:05:56;;;;;;;2.90;1.37;;;;;;;;;;5053928;28;20413;-83
2023/03/09 03:08:22;;;;;;;3.97;2.07;;;;;;;;;;5053807;28;20778;-83
2023/03/09 03:10:48;;;;;;;4.20;2.20;;;;;;;;;;5053725;28;20495;-82
2023/03/09 03:13:13;;;;;;;4.50;2.17;;;;;;;;;;5053726;28;20456;-82
2023/03/09 03:15:39;;;;;;;3.23;2.00;;;;;;;;;;5052059;28;20417;-82
2023/03/09 03:18:05;;;;;;;3.00;1.87;;;;;;;;;;5053579;28;20947;-83
2023/03/09 03:20:31;;;;;;;4.60;3.00;;;;;;;;;;5053648;28;20477;-83
2023/03/09 03:22:57;;;;;;;3.50;2.23;;;;;;;;;;5053508;28;20411;-83
2023/03/09 03:25:23;;;;;;;4.53;2.20;;;;;;;;;;5052287;28;20520;-83
2023/03/09 03:27:49;;;;;;;4.90;2.60;;;;;;;;;;5053483;28;20509;-83
2023/03/09 03:30:15;;;;;;;3.60;2.00;;;;;;;;;;5053076;28;20960;-83
2023/03/09 03:32:41;;;;;;;4.03;2.00;;;;;;;;;;5053405;28;20422;-83
2023/03/09 03:35:07;;;;;;;4.00;2.33;;;;;;;;;;5053334;28;20503;-83
2023/03/09 03:37:33;;;;;;;6.03;2.87;;;;;;;;;;5053191;28;20408;-83
2023/03/09 03:39:59;;;;;;;3.80;2.23;;;;;;;;;;5053265;28;20764;-83
2023/03/09 03:42:25;;;;;;;3.60;2.10;;;;;;;;;;5053217;28;20890;-83
2023/03/09 03:44:51;;;;;;;3.20;2.50;;;;;;;;;;5051607;28;20427;-82
2023/03/09 03:47:17;;;;;;;4.80;2.50;;;;;;;;;;5051873;28;20436;-82
2023/03/09 03:49:42;;;;;;;4.67;3.53;;;;;;;;;;5053197;28;20433;-83
2023/03/09 03:52:09;;;;;;;3.80;2.27;;;;;;;;;;5052247;28;20416;-81
2023/03/09 03:54:35;;;;;;;3.87;2.00;;;;;;;;;;5053047;28;20427;-82
2023/03/09 03:57:01;;;;;;;6.47;3.07;;;;;;;;;;5052997;28;20404;-82
2023/03/09 03:59:27;;;;;;;3.37;2.63;;;;;;;;;;5052395;28;20471;-82
2023/03/09 04:01:53;;;;;;;3.70;2.43;;;;;;;;;;5051461;28;20416;-83
2023/03/09 04:04:19;;;;;;;3.37;2.07;;;;;;;;;;5052265;28;20849;-83
2023/03/09 04:06:47;;;;;;;4.57;2.97;;;;;;;;;;5052808;28;20408;-84
2023/03/09 04:09:13;;;;;;;4.47;2.70;;;;;;;;;;5051968;28;20467;-83
2023/03/09 04:11:39;;;;;;;9.93;3.10;;;;;;;;;;5052409;28;20414;-83
2023/03/09 04:14:04;;;;;;;5.40;3.93;;;;;;;;;;5051528;28;20447;-83
2023/03/09 04:16:30;;;;;;;5.30;3.00;;;;;;;;;;5052539;28;20439;-83
2023/03/09 04:18:56;;;;;;;4.40;2.90;;;;;;;;;;5052721;28;20554;-83
2023/03/09 04:21:22;;;;;;;4.37;2.97;;;;;;;;;;5052751;28;20495;-83
2023/03/09 04:23:49;;;;;;;5.53;3.63;;;;;;;;;;5051557;28;20427;-83
2023/03/09 04:26:15;;;;;;;6.93;3.43;;;;;;;;;;5051547;28;20422;-83
2023/03/09 04:28:41;;;;;;;4.43;3.07;;;;;;;;;;5052831;28;20428;-86
2023/03/09 04:31:07;;;;;;;9.03;3.80;;;;;;;;;;5052376;28;20404;-83
2023/03/09 04:33:32;;;;;;;4.10;2.83;;;;;;;;;;5052704;28;20412;-83
2023/03/09 04:35:58;;;;;;;7.53;3.23;;;;;;;;;;5052670;28;20439;-83
2023/03/09 04:38:24;;;;;;;5.90;3.03;;;;;;;;;;5052500;28;20462;-83
2023/03/09 04:40:50;;;;;;;6.40;2.70;;;;;;;;;;5052575;28;20412;-83
2023/03/09 04:43:16;;;;;;;6.50;3.50;;;;;;;;;;5052617;28;20462;-83
2023/03/09 04:45:42;;;;;;;6.03;3.20;;;;;;;;;;5051008;28;20421;-83
2023/03/09 04:48:08;;;;;;;4.90;3.23;;;;;;;;;;5052523;28;20407;-82
2023/03/09 04:50:34;;;;;;;8.70;2.90;;;;;;;;;;5052467;28;20413;-82
2023/03/09 04:53:00;;;;;;;5.10;3.93;;;;;;;;;;5052460;28;20474;-82
2023/03/09 04:55:26;;;;;;;8.43;3.33;;;;;;;;;;5052430;28;20406;-82
2023/03/09 04:57:52;;;;;;;6.20;3.47;;;;;;;;;;5052294;28;20476;-82
2023/03/09 05:00:18;;;;;;;8.40;4.60;;;;;;;;;;5052038;28;20411;-83
2023/03/09 05:02:44;;;;;;;10.47;5.63;;;;;;;;;;5052356;28;20770;-82
2023/03/09 05:05:10;;;;;;;6.67;3.10;;;;;;;;;;5054673;28;20478;-83
2023/03/09 05:07:37;;;;;;;6.17;3.63;;;;;;;;;;5056121;28;20425;-83
2023/03/09 05:10:03;;;;;;;6.83;3.73;;;;;;;;;;5056031;28;20400;-83
2023/03/09 05:12:31;;;;;;;5.97;4.13;;;;;;;;;;5056045;28;20883;-82
2023/03/09 05:15:00;;;;;;;9.40;4.97;;;;;;;;;;5054445;28;20419;-82
2023/03/09 05:17:26;;;;;;;9.83;4.33;;;;;;;;;;5054576;28;20428;-83
2023/03/09 05:19:52;;;;;;;10.90;4.53;;;;;;;;;;5055915;28;20470;-84
2023/03/09 05:22:18;;;;;;;6.40;3.77;;;;;;;;;;5055748;28;20410;-83
2023/03/09 05:24:44;;;;;;;5.40;4.57;;;;;;;;;;5055749;28;20420;-85
2023/03/09 05:27:12;;;;;;;6.73;3.73;;;;;;;;;;5055738;28;20412;-85
2023/03/09 05:29:38;;;;;;;6.30;4.00;;;;;;;;;;5054161;28;20412;-84
2023/03/09 05:32:04;;;;;;;6.70;5.23;;;;;;;;;;5055693;28;20980;-85
2023/03/09 05:34:30;;;;;;;6.83;4.30;;;;;;;;;;5055497;28;20867;-85
2023/03/09 05:36:56;;;;;;;6.10;4.60;;;;;;;;;;5027405;28;20465;-84
2023/03/09 05:39:22;;;;;;;5.03;3.37;;;;;;;;;;5074174;28;20507;-84
2023/03/09 05:41:48;;;;;;;7.03;4.37;;;;;;;;;;5075390;28;20406;-82
2023/03/09 05:44:14;;;;;;;6.70;5.40;;;;;;;;;;5075183;28;20404;-82
2023/03/09 05:46:40;;;;;;;8.20;5.30;;;;;;;;;;5075184;28;20410;-83
2023/03/09 05:49:06;;;;;;;5.23;4.23;;;;;;;;;;5073981;28;20577;-84
2023/03/09 05:51:32;;;;;;;9.37;5.60;;;;;;;;;;5075170;28;20411;-89
2023/03/09 05:53:58;;;;;;;7.23;5.30;;;;;;;;;;5075177;28;20772;-84
2023/03/09 05:56:24;;;;;;;6.47;4.20;;;;;;;;;;5075215;28;20403;-84
2023/03/09 05:58:50;;;;;;;6.50;3.87;;;;;;;;;;5073701;28;20497;-83
2023/03/09 06:01:23;;;;;;;7.70;5.03;;;;;;;;;;5075174;28;20546;-83
2023/03/09 06:03:49;;;;;;;7.33;4.33;;;;;;;;;;5074986;28;20454;-84
2023/03/09 06:06:16;;;;;;;7.10;5.23;;;;;;;;;;5073801;28;20842;-84
2023/03/09 06:08:42;;;;;;;10.20;5.80;;;;;;;;;;5075010;28;20809;-82
2023/03/09 06:11:08;;;;;;;7.40;5.40;;;;;;;;;;5073649;28;20502;-84
2023/03/09 06:13:34;;;;;;;8.70;4.90;;;;;;;;;;5074870;28;20425;-84
2023/03/09 06:16:04;;;;;;;7.90;5.57;;;;;;;;;;5072323;28;20955;-82
2023/03/09 06:18:30;;;;;;;10.90;6.33;;;;;;;;;;5073404;28;20639;-82
2023/03/09 06:21:00;;;;;;;7.77;5.60;;;;;;;;;;5074727;28;20490;-82
2023/03/09 06:23:25;;;;;;;8.20;4.80;;;;;;;;;;5074708;28;20461;-83
2023/03/09 06:25:52;;;;;;;6.80;4.37;;;;;;;;;;5074660;28;20807;-82
2023/03/09 06:28:23;;;;;;;8.83;5.80;;;;;;;;;;5074647;28;20420;-82
2023/03/09 06:30:49;;;;;;;9.97;5.43;;;;;;;;;;5074373;28;20404;-83
2023/03/09 06:33:15;;;;;;;7.63;5.33;;;;;;;;;;5074511;28;20414;-83
2023/03/09 06:35:41;;;;;;;8.50;5.37;;;;;;;;;;5074489;28;20404;-83
2023/03/09 06:38:07;;;;;;;10.70;6.60;;;;;;;;;;5074991;28;20476;-85
2023/03/09 06:40:33;;;;;;;6.37;4.03;;;;;;;;;;5032294;28;20838;-84
2023/03/09 06:43:00;;;;;;;7.17;5.93;;;;;;;;;;5074250;28;20404;-84
2023/03/09 06:45:26;;;;;;;8.73;5.60;;;;;;;;;;5072705;28;20484;-84
2023/03/09 06:47:56;;;;;;;8.07;5.77;;;;;;;;;;5074203;28;20420;-83
2023/03/09 06:50:22;;;;;;;12.60;6.27;;;;;;;;;;5072830;28;20482;-84
2023/03/09 06:52:48;;;;;;;10.13;5.80;;;;;;;;;;5074065;28;20413;-84
2023/03/09 06:55:14;;;;;;;9.77;7.03;;;;;;;;;;5073994;28;20425;-83
2023/03/09 06:57:40;;;;;;;7.23;5.60;;;;;;;;;;5073905;28;20435;-83
2023/03/09 07:00:07;;;;;;;8.53;6.47;;;;;;;;;;5073582;28;20772;-85
2023/03/09 07:02:33;;;;;;;7.97;5.00;;;;;;;;;;5073953;28;20443;-84
2023/03/09 07:04:59;;;;;;;10.23;6.00;;;;;;;;;;5073565;28;20469;-83
2023/03/09 07:07:25;;;;;;;10.77;5.77;;;;;;;;;;5073798;28;20788;-84
2023/03/09 07:09:51;;;;;;;10.77;6.10;;;;;;;;;;5073709;28;20419;-83
2023/03/09 07:12:17;;;;;;;11.00;6.20;;;;;;;;;;5073675;28;20403;-84
2023/03/09 07:14:42;;;;;;;8.37;5.90;;;;;;;;;;5073443;28;20775;-82
2023/03/09 07:17:12;;;;;;;10.23;5.73;;;;;;;;;;5073639;28;20412;-82
2023/03/09 07:19:38;;;;;;;8.90;5.60;;;;;;;;;;5073408;28;20472;-82
2023/03/09 07:22:04;;;;;;;9.77;5.93;;;;;;;;;;5073466;28;20414;-82
2023/03/09 07:24:29;;;;;;;9.60;5.20;;;;;;;;;;5073570;28;20762;-82
2023/03/09 07:26:55;;;;;;;7.50;5.27;;;;;;;;;;5071911;28;20424;-83
2023/03/09 07:29:21;;;;;;;12.17;7.43;;;;;;;;;;5072993;28;20768;-83
2023/03/09 07:31:47;;;;;;;9.50;6.10;;;;;;;;;;5073567;28;20414;-82
2023/03/09 07:34:13;;;;;;;12.30;5.67;;;;;;;;;;5073425;28;20420;-82
2023/03/09 07:36:39;;;;;;;9.70;6.70;;;;;;;;;;5073288;28;20464;-82
2023/03/09 07:39:05;;;;;;;9.57;5.90;;;;;;;;;;5073180;28;20478;-83
2023/03/09 07:41:31;;;;;;;9.90;5.70;;;;;;;;;;5073370;28;20404;-82
2023/03/09 07:43:58;;;;;;;9.70;6.30;;;;;;;;;;5036577;28;20431;-84
2023/03/09 07:46:24;;;;;;;9.50;6.00;;;;;;;;;;5069725;28;20415;-83
2023/03/09 07:48:51;;;;;;;7.77;5.60;;;;;;;;;;5071888;28;20937;-83
2023/03/09 07:51:18;;;;;;;15.30;6.37;;;;;;;;;;5073228;28;20419;-82
2023/03/09 07:53:43;;;;;;;11.33;5.73;;;;;;;;;;5073118;28;20411;-82
2023/03/09 07:56:22;;;;;;;11.00;5.70;;;;;;;;;;5073052;28;20422;-82
2023/03/09 07:58:48;;;;;;;7.80;4.93;;;;;;;;;;5072557;28;20477;-82
2023/03/09 08:01:16;;;;;;;13.83;6.50;;;;;;;;;;5073006;28;20408;-87
2023/03/09 08:03:42;;;;;;;12.07;6.37;;;;;;;;;;5071613;28;20949;-83
2023/03/09 08:06:09;;;;;;;8.23;6.10;;;;;;;;;;5073245;28;20419;-86
2023/03/09 08:08:35;;;;;;;7.00;4.80;;;;;;;;;;5073034;28;20934;-82
2023/03/09 08:11:02;;;;;;;8.00;5.37;;;;;;;;;;5071615;28;20403;-82
2023/03/09 08:13:28;;;;;;;10.47;6.00;;;;;;;;;;5071312;28;20419;-81
2023/03/09 08:15:54;;;;;;;11.77;6.33;;;;;;;;;;5072886;28;20415;-85
2023/03/09 08:18:20;;;;;;;8.60;5.73;;;;;;;;;;5072715;28;20938;-82
2023/03/09 08:20:46;;;;;;;8.50;4.77;;;;;;;;;;5072729;28;20461;-82
2023/03/09 08:23:12;;;;;;;8.03;5.73;;;;;;;;;;5072708;28;20443;-84
2023/03/09 08:25:39;;;;;;;6.70;5.93;;;;;;;;;;5072719;28;20414;-81
2023/03/09 08:28:05;;;;;;;6.93;5.73;;;;;;;;;;5071407;28;20418;-81
2023/03/09 08:30:31;;;;;;;7.30;4.40;;;;;;;;;;5072266;28;20825;-81
2023/03/09 08:32:57;;;;;;;8.03;5.50;;;;;;;;;;5072519;28;20502;-81
2023/03/09 08:35:25;;;;;;;7.20;5.90;;;;;;;;;;5072574;28;20792;-81
2023/03/09 08:37:51;;;;;;;10.83;5.63;;;;;;;;;;5072627;28;20462;-85
2023/03/09 08:40:17;;;;;;;9.50;5.67;;;;;;;;;;5076597;28;20410;-81
2023/03/09 08:42:43;;;;;;;10.57;5.03;;;;;;;;;;5076565;28;20441;-83
2023/03/09 08:45:10;;;;;;;6.37;4.30;;;;;;;;;;5076161;28;20415;-80
2023/03/09 08:47:36;;;;;;;11.33;4.90;;;;;;;;;;5076560;28;20401;-81
2023/03/09 08:50:03;;;;;;;7.77;5.27;;;;;;;;;;5034857;28;20435;-81
2023/03/09 08:52:34;;;;;;;8.23;4.93;;;;;;;;;;5075129;28;20411;-82
2023/03/09 08:55:00;;;;;;;7.00;4.10;;;;;;;;;;5075144;28;20429;-81
2023/03/09 08:57:26;;;;;;;8.40;4.00;;;;;;;;;;5076199;28;20410;-81
2023/03/09 08:59:52;;;;;;;12.40;6.27;;;;;;;;;;5075839;28;20413;-87
2023/03/09 09:02:18;;;;;;;7.67;5.23;;;;;;;;;;5076129;28;20437;-81
2023/03/09 09:04:47;;;;;;;10.53;7.37;;;;;;;;;;5074682;28;20477;-82
2023/03/09 09:07:14;;;;;;;14.67;9.73;;;;;;;;;;5076156;28;20467;-82
2023/03/09 09:09:40;;;;;;;6.37;5.07;;;;;;;;;;5076036;28;20471;-81
2023/03/09 09:12:09;;;;;;;20.23;9.40;;;;;;;;;;5076155;28;20407;-82
2023/03/09 09:14:37;;;;;;;14.73;8.53;;;;;;;;;;5075679;28;20407;-82
2023/03/09 09:17:04;;;;;;;17.30;9.40;;;;;;;;;;5075923;28;20421;-82
2023/03/09 09:19:30;;;;;;;15.53;5.50;;;;;;;;;;5075406;28;20477;-82
2023/03/09 09:21:56;;;;;;;7.20;4.47;;;;;;;;;;5075578;28;20807;-82
2023/03/09 09:24:22;;;;;;;13.50;7.40;;;;;;;;;;5075739;28;21046;-86
2023/03/09 09:26:48;;;;;;;9.57;7.07;;;;;;;;;;5074230;28;20774;-88
2023/03/09 09:29:14;;;;;;;8.17;5.23;;;;;;;;;;5075244;28;20415;-83
2023/03/09 09:31:40;;;;;;;7.40;4.03;;;;;;;;;;5075612;28;20418;-83
2023/03/09 09:34:07;;;;;;;4.57;2.90;;;;;;;;;;5074309;28;20430;-82
2023/03/09 09:36:35;;;;;;;7.37;5.07;;;;;;;;;;5075573;28;20422;-82
2023/03/09 09:39:02;;;;;;;8.83;4.80;;;;;;;;;;5074146;28;20862;-82
2023/03/09 09:41:39;;;;;;;10.50;7.47;;;;;;;;;;5065155;28;20416;-82
2023/03/09 09:44:08;;;;;;;6.07;3.80;;;;;;;;;;5056588;28;20440;-83
2023/03/09 09:46:35;;;;;;;7.97;5.70;;;;;;;;;;5055244;28;20407;-83
2023/03/09 09:49:01;;;;;;;6.53;4.30;;;;;;;;;;5054916;28;21005;-82
2023/03/09 09:51:39;;;;;;;7.27;3.20;;;;;;;;;;5065094;28;20421;-83
2023/03/09 09:54:16;;;;;;;4.73;2.03;;;;;;;;;;5074824;28;20457;-82
2023/03/09 09:56:47;;;;;;;6.70;3.90;;;;;;;;;;5073484;28;20407;-83
2023/03/09 09:59:17;;;;;;;3.33;2.63;;;;;;;;;;5074527;28;21013;-82
2023/03/09 10:02:05;;;;;;;4.90;3.07;;;;;;;;;;5075181;28;20411;-81
2023/03/09 10:04:34;;;;;;;5.07;3.43;;;;;;;;;;5046410;28;20465;-81
2023/03/09 10:07:03;;;;;;;3.70;2.80;;;;;;;;;;5073629;28;20506;-82
2023/03/09 10:09:32;;;;;;;5.13;2.87;;;;;;;;;;5075198;28;20504;-86
2023/03/09 10:11:59;;;;;;;6.73;3.43;;;;;;;;;;5073613;28;20480;-85
2023/03/09 10:14:29;;;;;;;6.10;3.63;;;;;;;;;;5072899;28;20422;-86
2023/03/09 10:16:59;;;;;;;4.67;2.67;;;;;;;;;;5073388;28;20421;-82
2023/03/09 10:19:31;;;;;;;3.63;3.13;;;;;;;;;;5052416;28;20476;-82
2023/03/09 10:22:16;;;;;;;5.00;3.10;;;;;;;;;;5062050;28;20461;-82
2023/03/09 10:24:43;;;;;;;5.47;3.83;;;;;;;;;;5074691;28;20895;-81
2023/03/09 10:27:20;;;;;;;4.03;2.93;;;;;;;;;;5074718;28;20418;-80
2023/03/09 10:30:04;;;;;;;5.97;3.23;;;;;;;;;;5074294;28;20399;-81
2023/03/09 10:32:49;;;;;;;18.47;9.43;;;;;;;;;;5073966;28;20409;-81
2023/03/09 10:35:36;;;;;;;22.03;10.00;;;;;;;;;;5074361;28;20417;-81
2023/03/09 10:38:02;;;;;;;8.07;5.77;;;;;;;;;;5074437;28;20472;-83
2023/03/09 10:40:35;;;;;;;4.93;4.23;;;;;;;;;;5074438;28;20765;-81
2023/03/09 10:43:01;;;;;;;6.13;3.50;;;;;;;;;;5072896;28;20506;-81
2023/03/09 10:45:29;;;;;;;6.97;4.67;;;;;;;;;;5074125;28;20502;-81
2023/03/09 10:47:56;;;;;;;8.13;6.17;;;;;;;;;;5074065;28;20953;-81
2023/03/09 10:50:24;;;;;;;8.90;4.20;;;;;;;;;;5074174;28;20966;-81
2023/03/09 10:52:51;;;;;;;9.13;6.40;;;;;;;;;;5074063;28;20908;-82
2023/03/09 10:55:27;;;;;;;5.07;4.13;;;;;;;;;;5073845;28;20403;-81
2023/03/09 10:57:57;;;;;;;4.30;3.37;;;;;;;;;;5073834;28;20514;-81
2023/03/09 11:00:23;;;;;;;5.93;3.73;;;;;;;;;;5073501;28;20507;-81
2023/03/09 11:02:54;;;;;;;8.20;5.90;;;;;;;;;;5073513;28;20438;-81
2023/03/09 11:05:20;;;;;;;7.50;4.23;;;;;;;;;;5075014;28;20444;-81
2023/03/09 11:07:51;;;;;;;9.87;5.20;;;;;;;;;;5073857;28;20415;-81
2023/03/09 11:10:21;;;;;;;6.90;4.50;;;;;;;;;;5073823;28;20971;-81
2023/03/09 11:12:48;;;;;;;5.67;3.53;;;;;;;;;;5073693;28;20423;-81
2023/03/09 11:15:13;;;;;;;6.70;4.53;;;;;;;;;;5073327;28;20407;-81
2023/03/09 11:17:40;;;;;;;7.03;3.70;;;;;;;;;;5073675;28;20416;-81
2023/03/09 11:20:12;;;;;;;6.87;3.73;;;;;;;;;;5072374;28;20594;-81
2023/03/09 11:22:44;;;;;;;7.07;5.13;;;;;;;;;;5073532;28;20460;-82
2023/03/09 11:25:34;;;;;;;4.97;4.30;;;;;;;;;;5073490;28;20409;-80
2023/03/09 11:28:04;;;;;;;11.27;6.23;;;;;;;;;;5072932;28;20928;-82
2023/03/09 11:30:30;;;;;;;6.33;5.60;;;;;;;;;;5072142;28;21011;-81
2023/03/09 11:32:56;;;;;;;6.00;4.30;;;;;;;;;;5073462;28;20756;-81
2023/03/09 11:35:23;;;;;;;5.87;3.87;;;;;;;;;;5073459;28;20485;-82
2023/03/09 11:37:59;;;;;;;12.03;6.73;;;;;;;;;;5073317;28;20739;-81
2023/03/09 11:40:29;;;;;;;10.63;6.50;;;;;;;;;;5073398;28;20780;-81
2023/03/09 11:43:23;;;;;;;6.33;5.47;;;;;;;;;;5073001;28;20402;-82
2023/03/09 11:45:49;;;;;;;7.23;5.17;;;;;;;;;;5018359;28;20818;-83
2023/03/09 11:48:23;;;;;;;5.43;3.40;;;;;;;;;;5053188;28;20411;-81
2023/03/09 11:50:59;;;;;;;7.83;4.40;;;;;;;;;;5067314;28;20417;-81
2023/03/09 11:53:27;;;;;;;6.23;4.47;;;;;;;;;;5069152;28;20495;-82
2023/03/09 11:55:54;;;;;;;5.83;4.33;;;;;;;;;;5071571;28;20407;-81
2023/03/09 11:58:23;;;;;;;8.17;4.03;;;;;;;;;;5070883;28;20478;-82
2023/03/09 12:00:53;;;;;;;9.33;5.53;;;;;;;;;;5072729;28;20406;-82
2023/03/09 12:03:19;;;;;;;9.43;6.33;;;;;;;;;;5069916;28;20437;-82
2023/03/09 12:05:57;;;;;;;13.60;7.57;;;;;;;;;;5072563;28;20460;-81
2023/03/09 12:08:27;;;;;;;5.50;3.73;;;;;;;;;;5071655;28;20446;-82
2023/03/09 12:10:55;;;;;;;4.80;3.73;;;;;;;;;;5072852;28;20416;-82
2023/03/09 12:13:25;;;;;;;26.90;12.60;;;;;;;;;;5071467;28;20474;-82
2023/03/09 12:15:54;;;;;;;5.43;4.77;;;;;;;;;;5070924;28;20424;-82
2023/03/09 12:18:22;;;;;;;6.00;3.80;;;;;;;;;;5072446;28;20925;-82
2023/03/09 12:20:50;;;;;;;9.83;4.93;;;;;;;;;;5066643;28;20438;-82
2023/03/09 12:23:35;;;;;;;7.20;4.93;;;;;;;;;;5063250;28;20483;-82
2023/03/09 12:26:01;;;;;;;6.57;4.33;;;;;;;;;;5052746;28;20426;-82
2023/03/09 12:28:27;;;;;;;6.80;5.37;;;;;;;;;;5052001;28;20780;-82
2023/03/09 12:30:55;;;;;;;8.03;3.70;;;;;;;;;;5051186;28;20424;-82
2023/03/09 12:33:40;;;;;;;4.80;4.27;;;;;;;;;;5052386;28;20415;-82
2023/03/09 12:36:20;;;;;;;6.20;4.70;;;;;;;;;;5052425;28;20768;-82
2023/03/09 12:38:46;;;;;;;7.83;4.27;;;;;;;;;;5052362;28;20480;-82
2023/03/09 12:41:25;;;;;;;6.13;3.37;;;;;;;;;;5051143;28;20780;-82
2023/03/09 12:43:52;;;;;;;10.17;4.83;;;;;;;;;;5051984;28;20647;-82
2023/03/09 12:46:37;;;;;;;6.80;3.53;;;;;;;;;;5051077;28;20443;-82
2023/03/09 12:49:09;;;;;;;6.60;4.73;;;;;;;;;;5027138;28;20438;-81
2023/03/09 12:51:38;;;;;;;6.03;3.53;;;;;;;;;;5070930;28;20427;-82
2023/03/09 12:54:24;;;;;;;6.77;3.60;;;;;;;;;;5071906;28;20431;-82
2023/03/09 12:56:51;;;;;;;6.13;4.17;;;;;;;;;;5070842;28;20425;-82
2023/03/09 12:59:21;;;;;;;5.30;4.40;;;;;;;;;;5071011;28;20626;-82
2023/03/09 13:01:47;;;;;;;8.07;4.80;;;;;;;;;;5071171;28;20517;-82
2023/03/09 13:04:15;;;;;;;6.70;3.43;;;;;;;;;;5071416;28;20425;-81
2023/03/09 13:06:51;;;;;;;6.00;3.93;;;;;;;;;;5072138;28;20468;-81
2023/03/09 13:09:21;;;;;;;8.67;3.77;;;;;;;;;;5071038;28;20425;-81
2023/03/09 13:11:58;;;;;;;4.90;3.30;;;;;;;;;;5072308;28;20949;-81
2023/03/09 13:14:27;;;;;;;3.90;2.87;;;;;;;;;;5071493;28;20494;-82
2023/03/09 13:17:11;;;;;;;7.03;4.83;;;;;;;;;;5070869;28;20928;-82
2023/03/09 13:19:42;;;;;;;7.97;5.20;;;;;;;;;;5072024;28;20472;-82
2023/03/09 13:22:14;;;;;;;6.60;5.07;;;;;;;;;;5072082;28;20409;-81
2023/03/09 13:24:42;;;;;;;4.73;3.40;;;;;;;;;;5073592;28;20412;-82
2023/03/09 13:27:15;;;;;;;6.97;4.87;;;;;;;;;;5075679;28;20927;-81
2023/03/09 13:29:46;;;;;;;4.77;4.10;;;;;;;;;;5075394;28;20808;-82
2023/03/09 13:32:19;;;;;;;5.50;3.10;;;;;;;;;;5075610;28;20418;-82
2023/03/09 13:34:45;;;;;;;4.97;3.47;;;;;;;;;;5075413;28;20410;-82
2023/03/09 13:37:15;;;;;;;7.53;4.53;;;;;;;;;;5075531;28;20417;-82
2023/03/09 13:39:55;;;;;;;6.30;4.10;;;;;;;;;;5075545;28;20485;-82
2023/03/09 13:42:21;;;;;;;5.27;3.73;;;;;;;;;;5074291;28;20770;-81
2023/03/09 13:44:48;;;;;;;7.03;3.73;;;;;;;;;;5075098;28;20505;-81
2023/03/09 13:47:25;;;;;;;7.17;3.90;;;;;;;;;;5075414;28;20413;-82
2023/03/09 13:49:51;;;;;;;5.70;3.93;;;;;;;;;;5075372;28;20432;-81
2023/03/09 13:52:19;;;;;;;7.77;3.70;;;;;;;;;;5075325;28;20413;-82
2023/03/09 13:54:48;;;;;;;8.40;4.60;;;;;;;;;;5075279;28;20446;-82
2023/03/09 13:57:16;;;;;;;3.60;3.00;;;;;;;;;;5075261;28;20418;-82
2023/03/09 13:59:45;;;;;;;4.50;3.40;;;;;;;;;;5074687;28;20570;-82
2023/03/09 14:02:11;;;;;;;4.80;3.47;;;;;;;;;;5075017;28;20402;-82
2023/03/09 14:04:51;;;;;;;5.30;3.53;;;;;;;;;;5074925;28;20416;-82
2023/03/09 14:07:21;;;;;;;3.50;2.67;;;;;;;;;;5075004;28;20414;-82
2023/03/09 14:09:50;;;;;;;5.40;3.33;;;;;;;;;;5074915;28;20932;-82
2023/03/09 14:12:33;;;;;;;6.00;4.57;;;;;;;;;;5075013;28;20776;-82
2023/03/09 14:15:00;;;;;;;7.40;4.90;;;;;;;;;;5074861;28;20435;-82
2023/03/09 14:17:26;;;;;;;6.37;3.67;;;;;;;;;;5074816;28;20419;-81
2023/03/09 14:19:54;;;;;;;7.07;4.10;;;;;;;;;;5074725;28;20560;-82
2023/03/09 14:22:26;;;;;;;4.50;3.87;;;;;;;;;;5074682;28;20416;-82
2023/03/09 14:24:52;;;;;;;5.03;4.03;;;;;;;;;;5074709;28;20413;-82
2023/03/09 14:27:22;;;;;;;5.80;5.20;;;;;;;;;;5074659;28;20403;-82
2023/03/09 14:29:48;;;;;;;5.63;3.30;;;;;;;;;;5074466;28;20420;-81
2023/03/09 14:32:18;;;;;;;6.40;4.63;;;;;;;;;;5074555;28;20826;-82
2023/03/09 14:34:44;;;;;;;9.53;4.67;;;;;;;;;;5074430;28;20405;-82
2023/03/09 14:37:20;;;;;;;11.00;6.77;;;;;;;;;;5073659;28;20489;-81
2023/03/09 14:39:47;;;;;;;12.10;8.10;;;;;;;;;;5074359;28;20568;-81
2023/03/09 14:42:25;;;;;;;14.00;10.43;;;;;;;;;;5074429;28;20418;-82
2023/03/09 14:45:09;;;;;;;8.73;5.17;;;;;;;;;;5074360;28;20893;-82
2023/03/09 14:47:36;;;;;;;9.53;6.77;;;;;;;;;;5074199;28;20400;-81